createdAt,value
2023-02-27T00:02:31.610Z,7.80
2023-02-27T00:05:58.777Z,8.40
2023-02-27T00:09:27.531Z,6.80
2023-02-27T00:12:54.680Z,9.80
2023-02-27T00:16:22.234Z,7.40
2023-02-27T00:19:49.608Z,7.30
2023-02-27T00:23:17.116Z,5.80
2023-02-27T00:26:44.239Z,6.20
2023-02-27T00:30:16.383Z,5.30
2023-02-27T00:33:43.507Z,5.60
2023-02-27T00:37:11.138Z,7.20
2023-02-27T00:40:38.741Z,6.70
2023-02-27T00:44:06.117Z,5.70
2023-02-27T00:47:33.405Z,6.70
2023-02-27T00:51:01.110Z,8.50
2023-02-27T00:54:31.788Z,7.00
2023-02-27T00:57:59.285Z,5.40
2023-02-27T01:01:27.194Z,7.20
2023-02-27T01:04:57.071Z,6.20
2023-02-27T01:08:24.557Z,6.50
2023-02-27T01:11:51.876Z,6.50
2023-02-27T01:15:19.234Z,6.30
2023-02-27T01:18:46.859Z,4.70
2023-02-27T01:22:16.681Z,6.10
2023-02-27T01:25:44.242Z,4.80
2023-02-27T01:29:31.562Z,6.90
2023-02-27T01:33:00.137Z,4.60
2023-02-27T01:36:29.207Z,7.30
2023-02-27T01:39:56.803Z,10.30
2023-02-27T01:44:31.047Z,5.40
2023-02-27T01:48:04.198Z,7.70
2023-02-27T01:51:39.356Z,5.70
2023-02-27T01:55:08.721Z,9.70
2023-02-27T01:58:36.004Z,8.90
2023-02-27T02:02:06.547Z,8.40
2023-02-27T02:05:34.819Z,9.00
2023-02-27T02:09:03.354Z,9.50
2023-02-27T02:12:34.867Z,5.90
2023-02-27T02:16:16.096Z,7.00
2023-02-27T02:20:28.787Z,6.00
2023-02-27T02:24:20.048Z,9.30
2023-02-27T02:28:01.798Z,6.10
2023-02-27T02:32:00.635Z,7.30
2023-02-27T02:36:12.477Z,8.10
2023-02-27T02:40:17.810Z,7.60
2023-02-27T02:43:55.954Z,5.70
2023-02-27T02:47:32.640Z,5.60
2023-02-27T02:51:06.149Z,6.30
2023-02-27T02:54:41.167Z,8.10
2023-02-27T02:58:16.549Z,6.60
2023-02-27T03:01:49.784Z,6.30
2023-02-27T03:05:24.212Z,6.20
2023-02-27T03:08:58.911Z,6.70
2023-02-27T03:12:29.897Z,9.50
2023-02-27T03:16:02.570Z,6.50
2023-02-27T03:19:34.171Z,9.50
2023-02-27T03:23:06.170Z,8.00
2023-02-27T03:26:37.723Z,6.70
2023-02-27T03:30:10.698Z,5.70
2023-02-27T03:33:40.193Z,7.60
2023-02-27T03:37:14.348Z,4.50
2023-02-27T03:40:47.720Z,4.90
2023-02-27T03:44:25.404Z,8.20
2023-02-27T03:47:52.918Z,8.50
2023-02-27T03:51:22.237Z,6.50
2023-02-27T03:54:54.604Z,7.10
2023-02-27T03:58:21.127Z,7.00
2023-02-27T04:01:48.535Z,6.40
2023-02-27T04:05:15.150Z,6.50
2023-02-27T04:09:01.682Z,6.10
2023-02-27T04:12:46.055Z,7.00
2023-02-27T04:16:46.195Z,6.20
2023-02-27T04:20:24.349Z,5.20
2023-02-27T04:23:58.966Z,6.90
2023-02-27T04:27:33.597Z,6.60
2023-02-27T04:31:13.430Z,5.80
2023-02-27T04:34:44.965Z,6.70
2023-02-27T04:38:21.117Z,7.20
2023-02-27T04:41:51.900Z,6.10
2023-02-27T04:45:23.467Z,9.10
2023-02-27T04:48:55.611Z,7.60
2023-02-27T04:52:26.661Z,7.40
2023-02-27T04:55:57.830Z,5.00
2023-02-27T04:59:30.304Z,8.50
2023-02-27T05:03:01.808Z,7.70
2023-02-27T05:06:32.950Z,8.30
2023-02-27T05:10:04.533Z,7.50
2023-02-27T05:13:36.017Z,9.20
2023-02-27T05:17:09.698Z,9.10
2023-02-27T05:20:44.319Z,7.30
2023-02-27T05:24:19.965Z,6.10
2023-02-27T05:27:50.683Z,9.70
2023-02-27T05:31:25.528Z,6.00
2023-02-27T05:34:58.706Z,7.30
2023-02-27T05:38:31.771Z,8.40
2023-02-27T05:42:03.401Z,9.50
2023-02-27T05:45:34.965Z,10.20
2023-02-27T05:49:07.514Z,10.50
2023-02-27T05:52:36.178Z,12.20
2023-02-27T05:56:06.640Z,8.50
2023-02-27T05:59:39.222Z,9.00
2023-02-27T06:03:06.647Z,8.80
2023-02-27T06:06:34.034Z,10.80
2023-02-27T06:10:00.905Z,12.20
2023-02-27T06:13:28.045Z,8.00
2023-02-27T06:16:55.224Z,10.70
2023-02-27T06:20:22.253Z,9.80
2023-02-27T06:23:48.806Z,17.10
2023-02-27T06:27:15.753Z,15.20
2023-02-27T06:30:42.998Z,15.20
2023-02-27T06:34:11.254Z,18.00
2023-02-27T06:37:38.532Z,14.20
2023-02-27T06:41:05.601Z,17.40
2023-02-27T06:44:32.177Z,17.40
2023-02-27T06:47:59.711Z,13.40
2023-02-27T06:51:26.747Z,9.30
2023-02-27T06:54:54.899Z,9.20
2023-02-27T06:58:21.896Z,12.40
2023-02-27T07:01:51.631Z,8.60
2023-02-27T07:05:18.471Z,10.10
2023-02-27T07:09:00.917Z,7.40
2023-02-27T07:12:32.906Z,8.20
2023-02-27T07:15:59.862Z,5.60
2023-02-27T07:19:28.232Z,6.00
2023-02-27T07:22:54.788Z,6.50
2023-02-27T07:26:21.445Z,7.00
2023-02-27T07:29:48.508Z,10.70
2023-02-27T07:33:14.997Z,9.30
2023-02-27T07:36:42.305Z,13.40
2023-02-27T07:40:12.123Z,11.10
2023-02-27T07:43:39.003Z,11.90
2023-02-27T07:47:06.997Z,10.90
2023-02-27T07:50:34.053Z,10.30
2023-02-27T07:54:02.507Z,10.50
2023-02-27T07:57:30.312Z,12.20
2023-02-27T08:00:58.528Z,13.10
2023-02-27T08:04:25.544Z,10.90
2023-02-27T08:07:53.218Z,8.80
2023-02-27T08:11:20.121Z,12.60
2023-02-27T08:14:47.168Z,11.70
2023-02-27T08:18:14.327Z,10.40
2023-02-27T08:21:41.017Z,9.00
2023-02-27T08:25:11.134Z,11.80
2023-02-27T08:28:38.005Z,9.00
2023-02-27T08:32:05.950Z,11.70
2023-02-27T08:35:32.951Z,9.20
2023-02-27T08:38:59.754Z,7.50
2023-02-27T08:42:27.040Z,11.20
2023-02-27T08:45:54.266Z,15.20
2023-02-27T08:49:23.162Z,9.20
2023-02-27T08:52:50.356Z,7.90
2023-02-27T08:56:17.144Z,11.20
2023-02-27T08:59:43.765Z,9.60
2023-02-27T09:03:11.607Z,16.60
2023-02-27T09:06:39.335Z,14.60
2023-02-27T09:10:07.539Z,9.90
2023-02-27T09:13:34.831Z,5.40
2023-02-27T09:17:01.617Z,8.00
2023-02-27T09:20:28.762Z,6.40
2023-02-27T09:24:02.634Z,5.60
2023-02-27T09:27:34.001Z,6.60
2023-02-27T09:31:03.506Z,6.40
2023-02-27T09:34:31.079Z,8.10
2023-02-27T09:38:00.737Z,8.60
2023-02-27T09:41:43.660Z,7.80
2023-02-27T09:45:19.828Z,8.40
2023-02-27T09:48:52.822Z,6.60
2023-02-27T09:52:20.127Z,7.10
2023-02-27T09:55:48.514Z,9.60
2023-02-27T09:59:27.151Z,6.10
2023-02-27T10:03:02.440Z,8.20
2023-02-27T10:06:35.685Z,9.60
2023-02-27T10:10:20.712Z,5.00
2023-02-27T10:14:00.757Z,7.60
2023-02-27T10:17:30.651Z,4.10
2023-02-27T10:21:00.614Z,5.80
2023-02-27T10:24:32.072Z,6.20
2023-02-27T10:28:04.219Z,2.10
2023-02-27T10:31:36.272Z,5.80
2023-02-27T10:35:12.526Z,5.70
2023-02-27T10:38:44.682Z,5.50
2023-02-27T10:42:13.868Z,6.90
2023-02-27T10:45:40.531Z,4.30
2023-02-27T10:49:19.066Z,5.70
2023-02-27T10:52:53.930Z,4.30
2023-02-27T10:56:26.953Z,5.70
2023-02-27T11:03:26.684Z,4.90
2023-02-27T11:06:56.327Z,9.30
2023-02-27T11:10:25.557Z,5.00
2023-02-27T11:13:52.267Z,4.50
2023-02-27T11:17:28.889Z,4.70
2023-02-27T11:20:56.919Z,3.20
2023-02-27T11:24:23.616Z,4.60
2023-02-27T11:27:52.381Z,6.30
2023-02-27T11:31:23.053Z,19.90
2023-02-27T11:34:53.638Z,14.10
2023-02-27T11:38:24.983Z,8.30
2023-02-27T11:41:53.053Z,4.20
2023-02-27T11:46:04.905Z,4.30
2023-02-27T11:49:35.678Z,3.90
2023-02-27T11:53:12.623Z,6.10
2023-02-27T11:56:43.586Z,8.40
2023-02-27T12:00:21.891Z,3.90
2023-02-27T12:03:52.724Z,10.80
2023-02-27T12:07:24.592Z,19.30
2023-02-27T12:11:12.343Z,7.00
2023-02-27T12:14:48.909Z,10.90
2023-02-27T12:18:23.312Z,8.80
2023-02-27T12:21:55.384Z,5.90
2023-02-27T12:25:33.600Z,21.90
2023-02-27T12:29:05.327Z,25.70
2023-02-27T12:32:43.142Z,5.90
2023-02-27T12:36:14.266Z,3.90
2023-02-27T12:39:43.594Z,8.20
2023-02-27T12:43:24.578Z,10.20
2023-02-27T12:47:02.166Z,7.50
2023-02-27T12:50:36.772Z,4.40
2023-02-27T12:54:24.966Z,6.20
2023-02-27T12:58:09.517Z,9.30
2023-02-27T13:01:47.187Z,8.10
2023-02-27T13:05:28.428Z,5.70
2023-02-27T13:09:09.084Z,4.70
2023-02-27T13:12:43.120Z,4.80
2023-02-27T13:16:15.464Z,4.40
2023-02-27T13:19:48.752Z,7.90
2023-02-27T13:23:20.625Z,8.80
2023-02-27T13:26:51.968Z,7.20
2023-02-27T13:30:28.318Z,4.50
2023-02-27T13:34:04.637Z,2.90
2023-02-27T13:37:54.046Z,3.00
2023-02-27T13:41:40.904Z,6.60
2023-02-27T13:45:29.824Z,2.00
2023-02-27T13:48:57.437Z,2.70
2023-02-27T13:52:33.066Z,2.90
2023-02-27T13:56:23.252Z,2.70
2023-02-27T13:59:58.403Z,2.40
2023-02-27T14:03:27.992Z,2.80
2023-02-27T14:07:01.325Z,3.30
2023-02-27T14:10:31.578Z,3.10
2023-02-27T14:14:09.189Z,3.30
2023-02-27T14:17:46.644Z,3.60
2023-02-27T14:21:13.692Z,3.20
2023-02-27T14:24:52.793Z,4.60
2023-02-27T14:28:28.493Z,6.30
2023-02-27T14:31:57.607Z,3.40
2023-02-27T14:35:25.695Z,3.80
2023-02-27T14:38:55.785Z,5.60
2023-02-27T14:42:46.181Z,3.20
2023-02-27T14:46:24.272Z,5.10
2023-02-27T14:49:52.983Z,4.70
2023-02-27T14:53:28.764Z,5.70
2023-02-27T14:57:00.983Z,5.70
2023-02-27T15:00:41.189Z,5.80
2023-02-27T15:04:17.169Z,3.50
2023-02-27T15:07:49.465Z,4.90
2023-02-27T15:11:21.302Z,10.20
2023-02-27T15:14:53.933Z,4.70
2023-02-27T15:18:24.516Z,4.10
2023-02-27T15:21:54.168Z,4.60
2023-02-27T15:25:47.613Z,4.10
2023-02-27T15:29:25.170Z,7.40
2023-02-27T15:32:55.638Z,7.50
2023-02-27T15:36:28.181Z,16.80
2023-02-27T15:39:56.693Z,10.90
2023-02-27T15:43:27.760Z,6.40
2023-02-27T15:46:56.036Z,16.50
2023-02-27T15:50:33.869Z,13.40
2023-02-27T15:54:02.114Z,10.30
2023-02-27T15:57:30.817Z,12.60
2023-02-27T16:01:02.727Z,16.20
2023-02-27T16:04:31.441Z,18.70
2023-02-27T16:07:58.079Z,16.10
2023-02-27T16:11:27.149Z,17.30
2023-02-27T16:14:55.024Z,14.60
2023-02-27T16:18:33.128Z,14.10
2023-02-27T16:22:20.070Z,11.70
2023-02-27T16:26:04.642Z,18.60
2023-02-27T16:29:37.178Z,42.70
2023-02-27T16:33:06.320Z,36.20
2023-02-27T16:36:35.042Z,32.00
2023-02-27T16:40:01.856Z,38.40
2023-02-27T16:43:29.580Z,24.50
2023-02-27T16:46:59.446Z,38.80
2023-02-27T16:50:33.250Z,53.70
2023-02-27T16:54:01.121Z,36.40
2023-02-27T16:57:28.458Z,23.90
2023-02-27T17:00:56.061Z,20.10
2023-02-27T17:04:25.826Z,20.20
2023-02-27T17:07:54.910Z,24.10
2023-02-27T17:11:21.544Z,36.70
2023-02-27T17:14:48.184Z,31.70
2023-02-27T17:18:15.207Z,30.10
2023-02-27T17:21:42.581Z,29.90
2023-02-27T17:25:11.370Z,29.20
2023-02-27T17:28:40.875Z,34.60
2023-02-27T17:32:08.156Z,31.90
2023-02-27T17:35:35.117Z,30.10
2023-02-27T17:39:03.873Z,34.10
2023-02-27T17:42:30.861Z,22.50
2023-02-27T17:45:58.018Z,20.60
2023-02-27T17:49:24.787Z,36.40
2023-02-27T17:52:51.574Z,43.20
2023-02-27T17:56:18.686Z,45.60
2023-02-27T17:59:45.930Z,52.00
2023-02-27T18:03:13.822Z,48.90
2023-02-27T18:06:41.185Z,61.60
2023-02-27T18:10:11.292Z,61.20
2023-02-27T18:13:39.061Z,55.30
2023-02-27T18:17:12.337Z,51.70
2023-02-27T18:20:40.838Z,58.10
2023-02-27T18:24:09.773Z,59.30
2023-02-27T18:27:36.656Z,47.50
2023-02-27T18:31:08.968Z,44.80
2023-02-27T18:34:36.300Z,37.20
2023-02-27T18:38:04.188Z,34.70
2023-02-27T18:41:33.386Z,36.60
2023-02-27T18:45:00.347Z,41.60
2023-02-27T18:48:35.014Z,43.00
2023-02-27T18:52:03.579Z,48.70
2023-02-27T18:55:32.559Z,63.00
2023-02-27T18:59:05.479Z,48.50
2023-02-27T19:06:23.679Z,34.10
2023-02-27T19:09:51.958Z,43.80
2023-02-27T19:13:19.309Z,44.10
2023-02-27T19:16:47.322Z,40.50
2023-02-27T19:20:17.429Z,37.60
2023-02-27T19:23:44.816Z,46.80
2023-02-27T19:27:11.906Z,49.70
2023-02-27T19:30:41.457Z,50.30
2023-02-27T19:34:08.603Z,61.30
2023-02-27T19:37:35.830Z,79.50
2023-02-27T19:41:04.976Z,100.40
2023-02-27T19:44:32.263Z,90.30
2023-02-27T19:47:59.255Z,70.10
2023-02-27T19:51:27.110Z,53.90
2023-02-27T19:54:56.800Z,51.70
2023-02-27T19:58:23.733Z,60.90
2023-02-27T20:01:50.412Z,72.40
2023-02-27T20:05:19.559Z,86.80
2023-02-27T20:08:46.640Z,110.90
2023-02-27T20:12:14.464Z,72.60
2023-02-27T20:15:42.610Z,94.40
2023-02-27T20:19:11.075Z,91.00
2023-02-27T20:22:38.676Z,78.10
2023-02-27T20:26:24.690Z,76.80
2023-02-27T20:29:55.303Z,100.80
2023-02-27T20:33:22.627Z,105.90
2023-02-27T20:36:54.568Z,93.60
2023-02-27T20:40:23.116Z,93.80
2023-02-27T20:43:50.391Z,85.00
2023-02-27T20:47:17.647Z,81.80
2023-02-27T20:50:44.611Z,82.70
2023-02-27T20:54:16.811Z,101.90
2023-02-27T20:57:43.581Z,109.50
2023-02-27T21:01:13.553Z,98.90
2023-02-27T21:04:43.787Z,85.30
2023-02-27T21:08:10.832Z,77.40
2023-02-27T21:11:38.176Z,83.10
2023-02-27T21:15:05.980Z,90.40
2023-02-27T21:18:33.796Z,101.00
2023-02-27T21:22:01.816Z,80.00
2023-02-27T21:25:29.597Z,76.70
2023-02-27T21:29:05.362Z,85.90
2023-02-27T21:32:34.238Z,86.20
2023-02-27T21:36:01.043Z,86.70
2023-02-27T21:39:34.509Z,89.30
2023-02-27T21:43:01.540Z,92.10
2023-02-27T21:46:29.429Z,96.10
2023-02-27T21:49:59.599Z,96.50
2023-02-27T21:53:27.843Z,103.60
2023-02-27T21:56:54.882Z,113.30
2023-02-27T22:00:28.897Z,110.00
2023-02-27T22:03:59.414Z,94.30
2023-02-27T22:07:29.368Z,92.40
2023-02-27T22:11:01.356Z,95.40
2023-02-27T22:14:28.789Z,84.00
2023-02-27T22:17:57.078Z,100.20
2023-02-27T22:21:27.864Z,115.00
2023-02-27T22:28:23.271Z,113.30
2023-02-27T22:31:50.055Z,119.10
2023-02-27T22:35:19.290Z,99.50
2023-02-27T22:38:46.591Z,108.50
2023-02-27T22:42:16.751Z,110.80
2023-02-27T22:45:50.353Z,113.20
2023-02-27T22:49:20.453Z,110.70
2023-02-27T22:52:48.006Z,110.50
2023-02-27T22:56:17.324Z,113.20
2023-02-27T22:59:47.453Z,107.20
2023-02-27T23:03:14.711Z,108.70
2023-02-27T23:06:44.161Z,234.00
2023-02-27T23:10:13.651Z,128.90
2023-02-27T23:13:41.490Z,131.50
2023-02-27T23:17:09.420Z,123.40
2023-02-27T23:20:43.133Z,122.10
2023-02-27T23:24:17.627Z,118.00
2023-02-27T23:27:45.487Z,105.60
2023-02-27T23:31:13.831Z,105.40
2023-02-27T23:34:49.556Z,133.00
2023-02-27T23:38:17.207Z,156.80
2023-02-27T23:41:43.787Z,144.80
2023-02-27T23:45:30.256Z,111.10
2023-02-27T23:48:57.814Z,119.30
2023-02-27T23:52:24.549Z,109.20
2023-02-27T23:55:52.147Z,93.60
2023-02-27T23:59:19.019Z,111.80
